Flight Track Log - Related Links

Times and Time Zones

All times are in EDT time to prevent confusion due to time zone crossing. See the UAL274 flight status page for this flight to view local times or setup timezone preferences in your user account.

Time Position Orientation Groundspeed Altitude Reporting Facility
EDT Latitude Longitude Course Direction KTS MPH feet Rate Location/Type
Wed 08:54:58 PM 33.9167 -118.4667 90° East 209 241 1,900  Level Southern California TRACON
Wed 08:56:05 PM 33.8678 -118.5453 233° Southwest 258 297 4,600 2,233 Climbing Los Angeles Center
Wed 08:57:00 PM 33.6823 -118.5150 126° Southeast  Level FlightAware Approximate
Wed 08:57:07 PM 33.7956 -118.5486 182° South 288 331 6,700  Level Los Angeles Center
Wed 08:58:00 PM 33.6057 -118.3988 134° Southeast  Level FlightAware Approximate
Wed 08:58:09 PM 33.7172 -118.5261 167° South 292 336 9,100  Level Los Angeles Center
Wed 08:59:00 PM 33.5435 -118.2742 107° East  Level FlightAware Approximate
Wed 08:59:11 PM 33.6575 -118.4608 138° Southeast 307 353 10,700  Level Los Angeles Center
Wed 09:00:00 PM 33.5000 -118.1408 90° East  Level FlightAware Approximate
Wed 09:00:13 PM 33.5861 -118.3611 131° Southeast 330 380 12,800  Level Los Angeles Center
Wed 09:01:15 PM 33.5369 -118.2594 120° Southeast 358 412 13,700 1,258 Climbing Los Angeles Center
Wed 09:02:17 PM 33.5094 -118.1367 105° East 391 450 15,400 1,645 Climbing Los Angeles Center
Wed 09:03:19 PM 33.5064 -118.0064 92° East 399 459 17,100 1,489 Climbing Los Angeles Center
Wed 09:04:34 PM 33.4542 -117.8314 110° East 403 464 18,800 1,358 Climbing Los Angeles Center
Wed 09:05:36 PM 33.4142 -117.6997 110° East 421 484 20,200 1,122 Climbing Los Angeles Center
Wed 09:06:37 PM 33.3725 -117.5667 111° Southeast 428 493 21,100 1,024 Climbing Los Angeles Center
Wed 09:07:39 PM 33.3311 -117.4281 110° East 442 509 22,300 1,452 Climbing Los Angeles Center
Wed 09:08:41 PM 33.2878 -117.2903 111° Southeast 444 511 24,100 1,306 Climbing Los Angeles Center
Wed 09:09:43 PM 33.2414 -117.1450 111° Southeast 428 493 25,000 537 Climbing Los Angeles Center
Wed 09:10:44 PM 33.2053 -117.0333 111° Southeast 445 512 25,200 532 Climbing Los Angeles Center
Wed 09:11:47 PM 33.1325 -116.8728 118° Southeast 458 527 26,100 574 Climbing Los Angeles Center
Wed 09:13:00 PM 33.0686 -116.7392 120° Southeast 463 533 26,500 622 Climbing Los Angeles Center
Wed 09:14:02 PM 32.9778 -116.5469 119° Southeast 476 548 27,500 832 Climbing Los Angeles Center
Wed 09:15:17 PM 32.9089 -116.3961 119° Southeast 478 550 28,400 882 Climbing Los Angeles Center
Wed 09:16:18 PM 32.8447 -116.2608 119° Southeast 472 543 29,500 1,220 Climbing Los Angeles Center
Wed 09:17:20 PM 32.7658 -116.1036 121° Southeast 464 534 30,900 1,113 Climbing Los Angeles Center
Wed 09:18:22 PM 32.7044 -115.9753 120° Southeast 452 520 31,800 774 Climbing Los Angeles Center
Wed 09:19:24 PM 32.6422 -115.8472 120° Southeast 449 517 32,500 677 Climbing Los Angeles Center
Wed 09:21:00 PM 32.5381 -115.6501 122° Southeast  Level FlightAware Approximate
Wed 09:28:00 PM 32.0792 -114.7932 122° Southeast  Level FlightAware Approximate
Wed 09:29:00 PM 32.0131 -114.6715 123° Southeast  Level FlightAware Approximate
Wed 09:30:00 PM 31.9470 -114.5499 123° Southeast  Level FlightAware Approximate
Wed 09:31:00 PM 31.8807 -114.4286 123° Southeast  Level FlightAware Approximate
Wed 09:32:00 PM 31.8143 -114.3074 123° Southeast  Level FlightAware Approximate
Wed 09:33:00 PM 31.7478 -114.1864 123° Southeast  Level FlightAware Approximate
Wed 09:34:00 PM 31.6812 -114.0656 123° Southeast  Level FlightAware Approximate
Wed 09:35:00 PM 31.6145 -113.9449 123° Southeast  Level FlightAware Approximate
Wed 09:36:00 PM 31.5476 -113.8244 123° Southeast  Level FlightAware Approximate
Wed 09:37:00 PM 31.4807 -113.7041 123° Southeast  Level FlightAware Approximate
Wed 09:38:00 PM 31.4136 -113.5839 123° Southeast  Level FlightAware Approximate
Wed 09:39:00 PM 31.3437 -113.4657 128° Southeast  Level FlightAware Approximate
Wed 09:40:00 PM 31.2679 -113.3530 128° Southeast  Level FlightAware Approximate
Wed 09:41:00 PM 31.1903 -113.2378 128° Southeast  Level FlightAware Approximate
Wed 09:42:00 PM 31.1126 -113.1229 128° Southeast  Level FlightAware Approximate
Wed 09:43:00 PM 31.0348 -113.0081 128° Southeast  Level FlightAware Approximate
Wed 09:44:00 PM 30.9569 -112.8935 128° Southeast  Level FlightAware Approximate
Wed 09:45:00 PM 30.8757 -112.7822 131° Southeast  Level FlightAware Approximate
Wed 09:46:00 PM 30.7940 -112.6714 131° Southeast  Level FlightAware Approximate
Wed 09:47:00 PM 30.7123 -112.5607 130° Southeast  Level FlightAware Approximate
Wed 09:48:00 PM 30.6314 -112.4493 130° Southeast  Level FlightAware Approximate
Wed 09:49:00 PM 30.5508 -112.3378 130° Southeast  Level FlightAware Approximate
Wed 09:50:00 PM 30.4706 -112.2260 130° Southeast  Level FlightAware Approximate
Wed 09:51:00 PM 30.3903 -112.1143 130° Southeast  Level FlightAware Approximate
Wed 09:52:00 PM 30.3099 -112.0028 130° Southeast  Level FlightAware Approximate
Wed 09:53:00 PM 30.2295 -111.8914 130° Southeast  Level FlightAware Approximate
Wed 09:54:00 PM 30.1489 -111.7803 130° Southeast  Level FlightAware Approximate
Wed 09:55:00 PM 30.0682 -111.6693 130° Southeast  Level FlightAware Approximate
Wed 09:56:00 PM 29.9875 -111.5586 130° Southeast  Level FlightAware Approximate
Wed 09:57:00 PM 29.9066 -111.4480 130° Southeast  Level FlightAware Approximate
Wed 09:58:00 PM 29.8257 -111.3375 130° Southeast  Level FlightAware Approximate
Wed 09:59:00 PM 29.7447 -111.2273 130° Southeast  Level FlightAware Approximate
Wed 10:00:00 PM 29.6635 -111.1172 130° Southeast  Level FlightAware Approximate
Wed 10:01:00 PM 29.5823 -111.0074 130° Southeast  Level FlightAware Approximate
Wed 10:02:00 PM 29.5010 -110.8977 130° Southeast  Level FlightAware Approximate
Wed 10:03:00 PM 29.4196 -110.7881 130° Southeast  Level FlightAware Approximate
Wed 10:04:00 PM 29.3382 -110.6788 131° Southeast  Level FlightAware Approximate
Wed 10:05:00 PM 29.2571 -110.5691 130° Southeast  Level FlightAware Approximate
Wed 10:06:00 PM 29.1761 -110.4595 130° Southeast  Level FlightAware Approximate
Wed 10:07:00 PM 29.0950 -110.3500 130° Southeast  Level FlightAware Approximate
Wed 10:08:00 PM 29.0138 -110.2407 130° Southeast  Level FlightAware Approximate
Wed 10:09:00 PM 28.9326 -110.1315 130° Southeast  Level FlightAware Approximate
Wed 10:10:00 PM 28.8512 -110.0226 130° Southeast  Level FlightAware Approximate
Wed 10:11:00 PM 28.7698 -109.9138 130° Southeast  Level FlightAware Approximate
Wed 10:12:00 PM 28.6883 -109.8051 131° Southeast  Level FlightAware Approximate
Wed 10:13:00 PM 28.6067 -109.6967 131° Southeast  Level FlightAware Approximate
Wed 10:14:00 PM 28.5250 -109.5884 131° Southeast  Level FlightAware Approximate
Wed 10:15:00 PM 28.4432 -109.4802 131° Southeast  Level FlightAware Approximate
Wed 10:16:00 PM 28.3613 -109.3723 131° Southeast  Level FlightAware Approximate
Wed 10:17:00 PM 28.2794 -109.2645 131° Southeast  Level FlightAware Approximate
Wed 10:18:00 PM 28.1974 -109.1569 131° Southeast  Level FlightAware Approximate
Wed 10:19:00 PM 28.1144 -109.0503 132° Southeast  Level FlightAware Approximate
Wed 10:20:00 PM 28.0308 -108.9443 132° Southeast  Level FlightAware Approximate
Wed 10:21:00 PM 27.9472 -108.8385 132° Southeast  Level FlightAware Approximate
Wed 10:22:00 PM 27.8642 -108.7322 131° Southeast  Level FlightAware Approximate
Wed 10:23:00 PM 27.7815 -108.6257 131° Southeast  Level FlightAware Approximate
Wed 10:24:00 PM 27.6987 -108.5193 131° Southeast  Level FlightAware Approximate
Wed 10:25:00 PM 27.6158 -108.4131 131° Southeast  Level FlightAware Approximate
Wed 10:26:00 PM 27.5328 -108.3071 131° Southeast  Level FlightAware Approximate
Wed 10:27:00 PM 27.4498 -108.2012 131° Southeast  Level FlightAware Approximate
Wed 10:28:00 PM 27.3666 -108.0954 131° Southeast  Level FlightAware Approximate
Wed 10:29:00 PM 27.2834 -107.9899 132° Southeast  Level FlightAware Approximate
Wed 10:30:00 PM 27.2002 -107.8844 132° Southeast  Level FlightAware Approximate
Wed 10:31:00 PM 27.1174 -107.7786 130° Southeast  Level FlightAware Approximate
Wed 10:32:00 PM 27.0367 -107.6709 130° Southeast  Level FlightAware Approximate
Wed 10:33:00 PM 26.9559 -107.5632 130° Southeast  Level FlightAware Approximate
Wed 10:34:00 PM 26.8748 -107.4561 132° Southeast  Level FlightAware Approximate
Wed 10:35:00 PM 26.7907 -107.3518 132° Southeast  Level FlightAware Approximate
Wed 10:36:00 PM 26.7066 -107.2477 132° Southeast  Level FlightAware Approximate
Wed 10:37:00 PM 26.6224 -107.1438 132° Southeast  Level FlightAware Approximate
Wed 10:38:00 PM 26.5381 -107.0400 132° Southeast  Level FlightAware Approximate
Wed 10:39:00 PM 26.4538 -106.9363 132° Southeast  Level FlightAware Approximate
Wed 10:40:00 PM 26.3695 -106.8326 132° Southeast  Level FlightAware Approximate
Wed 10:41:00 PM 26.2861 -106.7282 132° Southeast  Level FlightAware Approximate
Wed 10:42:00 PM 26.2027 -106.6239 132° Southeast  Level FlightAware Approximate
Wed 10:43:00 PM 26.1191 -106.5197 132° Southeast  Level FlightAware Approximate
Wed 10:44:00 PM 26.0335 -106.4177 133° Southeast  Level FlightAware Approximate
Wed 10:45:00 PM 25.9478 -106.3159 133° Southeast  Level FlightAware Approximate
Wed 10:46:00 PM 25.8620 -106.2143 133° Southeast  Level FlightAware Approximate
Wed 10:47:00 PM 25.7811 -106.1079 130° Southeast  Level FlightAware Approximate
Wed 10:48:00 PM 25.7009 -106.0009 130° Southeast  Level FlightAware Approximate
Wed 10:49:00 PM 25.6206 -105.8941 130° Southeast  Level FlightAware Approximate
Wed 10:50:00 PM 25.5359 -105.7917 133° Southeast  Level FlightAware Approximate
Wed 10:51:00 PM 25.4496 -105.6909 133° Southeast  Level FlightAware Approximate
Wed 10:52:00 PM 25.3633 -105.5903 134° Southeast  Level FlightAware Approximate
Wed 10:53:00 PM 25.2775 -105.4892 132° Southeast  Level FlightAware Approximate
Wed 10:54:00 PM 25.1933 -105.3864 132° Southeast  Level FlightAware Approximate
Wed 10:55:00 PM 25.1090 -105.2839 132° Southeast  Level FlightAware Approximate
Wed 10:56:00 PM 25.0247 -105.1814 132° Southeast  Level FlightAware Approximate
Wed 10:57:00 PM 24.9403 -105.0791 132° Southeast  Level FlightAware Approximate
Wed 10:58:00 PM 24.8558 -104.9770 132° Southeast  Level FlightAware Approximate
Wed 10:59:00 PM 24.7713 -104.8750 132° Southeast  Level FlightAware Approximate
Wed 11:00:00 PM 24.6867 -104.7731 132° Southeast  Level FlightAware Approximate
Wed 11:01:00 PM 24.6020 -104.6714 132° Southeast  Level FlightAware Approximate
Wed 11:02:00 PM 24.5173 -104.5698 133° Southeast  Level FlightAware Approximate
Wed 11:03:00 PM 24.4325 -104.4683 133° Southeast  Level FlightAware Approximate
Wed 11:04:00 PM 24.3476 -104.3670 133° Southeast  Level FlightAware Approximate
Wed 11:05:00 PM 24.2617 -104.2669 133° Southeast  Level FlightAware Approximate
Wed 11:06:00 PM 24.1754 -104.1671 133° Southeast  Level FlightAware Approximate
Wed 11:07:00 PM 24.0891 -104.0674 133° Southeast  Level FlightAware Approximate
Wed 11:08:00 PM 24.0028 -103.9678 134° Southeast  Level FlightAware Approximate
Wed 11:09:00 PM 23.9164 -103.8684 134° Southeast  Level FlightAware Approximate
Wed 11:10:00 PM 23.8299 -103.7692 134° Southeast  Level FlightAware Approximate
Wed 11:11:00 PM 23.7434 -103.6700 134° Southeast  Level FlightAware Approximate
Wed 11:12:00 PM 23.6567 -103.5710 134° Southeast  Level FlightAware Approximate
Wed 11:13:00 PM 23.5701 -103.4721 134° Southeast  Level FlightAware Approximate
Wed 11:14:00 PM 23.4834 -103.3734 134° Southeast  Level FlightAware Approximate
Wed 11:15:00 PM 23.3966 -103.2748 134° Southeast  Level FlightAware Approximate
Wed 11:16:00 PM 23.3097 -103.1763 134° Southeast  Level FlightAware Approximate
Wed 11:17:00 PM 23.2228 -103.0779 134° Southeast  Level FlightAware Approximate
Wed 11:18:00 PM 23.1367 -102.9788 133° Southeast  Level FlightAware Approximate
Wed 11:19:00 PM 23.0513 -102.8790 133° Southeast  Level FlightAware Approximate
Wed 11:20:00 PM 22.9658 -102.7793 133° Southeast  Level FlightAware Approximate
Wed 11:21:00 PM 22.8811 -102.6809 135° Southeast  Level FlightAware Approximate
Wed 11:22:00 PM 22.7940 -102.5851 135° Southeast  Level FlightAware Approximate
Wed 11:23:00 PM 22.7068 -102.4895 135° Southeast  Level FlightAware Approximate
Wed 11:24:00 PM 22.6191 -102.3934 135° Southeast  Level FlightAware Approximate
Wed 11:25:00 PM 22.5313 -102.2975 135° Southeast  Level FlightAware Approximate
Wed 11:26:00 PM 22.4434 -102.2017 135° Southeast  Level FlightAware Approximate
Wed 11:27:00 PM 22.3555 -102.1060 135° Southeast  Level FlightAware Approximate
Wed 11:28:00 PM 22.2694 -102.0086 134° Southeast  Level FlightAware Approximate
Wed 11:29:00 PM 22.1833 -101.9111 134° Southeast  Level FlightAware Approximate
Wed 11:30:00 PM 22.0972 -101.8137 134° Southeast  Level FlightAware Approximate
Wed 11:31:00 PM 22.0110 -101.7165 134° Southeast  Level FlightAware Approximate
Wed 11:32:00 PM 21.9247 -101.6194 134° Southeast  Level FlightAware Approximate
Wed 11:33:00 PM 21.8384 -101.5224 134° Southeast  Level FlightAware Approximate
Wed 11:34:00 PM 21.7522 -101.4253 134° Southeast  Level FlightAware Approximate
Wed 11:35:00 PM 21.6660 -101.3283 134° Southeast  Level FlightAware Approximate
Wed 11:36:00 PM 21.5798 -101.2314 134° Southeast  Level FlightAware Approximate
Wed 11:37:00 PM 21.4893 -101.1392 137° Southeast  Level FlightAware Approximate
Wed 11:38:00 PM 21.3988 -101.0471 134° Southeast  Level FlightAware Approximate
Wed 11:39:00 PM 21.3115 -100.9514 134° Southeast  Level FlightAware Approximate
Wed 11:40:00 PM 21.2242 -100.8559 134° Southeast  Level FlightAware Approximate
Wed 11:41:00 PM 21.1368 -100.7605 134° Southeast  Level FlightAware Approximate
Wed 11:42:00 PM 21.0493 -100.6652 135° Southeast  Level FlightAware Approximate
Wed 11:43:00 PM 20.9618 -100.5700 135° Southeast  Level FlightAware Approximate
Wed 11:44:00 PM 20.8743 -100.4749 135° Southeast  Level FlightAware Approximate
Wed 11:45:00 PM 20.7926 -100.3759 137° Southeast  Level FlightAware Approximate
Wed 11:46:00 PM 20.7015 -100.2849 137° Southeast  Level FlightAware Approximate
Wed 11:47:00 PM 20.6186 -100.1872 118° Southeast  Level FlightAware Approximate
Wed 11:48:00 PM 20.5383 -100.0853 130° Southeast  Level FlightAware Approximate
Wed 11:49:00 PM 20.4583 -99.9832 129° Southeast  Level FlightAware Approximate
Wed 11:50:00 PM 20.3804 -99.8793 129° Southeast  Level FlightAware Approximate
Wed 11:51:00 PM 20.3017 -99.7762 130° Southeast  Level FlightAware Approximate
Wed 11:52:00 PM 20.2219 -99.6740 130° Southeast  Level FlightAware Approximate
Wed 11:53:00 PM 20.1420 -99.5720 130° Southeast  Level FlightAware Approximate
Wed 11:54:00 PM 20.0621 -99.4700 130° Southeast  Level FlightAware Approximate
Wed 11:55:00 PM 19.9872 -99.3641 125° Southeast  Level FlightAware Approximate
Wed 11:56:00 PM 19.9185 -99.2536 118° Southeast  Level FlightAware Approximate
Wed 11:57:00 PM 19.8343 -99.1559 133° Southeast  Level FlightAware Approximate
Wed 11:58:00 PM 19.7570 -99.0522 125° Southeast  Level FlightAware Approximate
Wed 11:59:00 PM 19.6521 -99.0333 180° South  Level FlightAware Approximate
Thu 12:00:00 AM 19.5283 -99.0443 191° South  Level FlightAware Approximate
Thu 12:01:00 AM 19.4363 -99.0721 180° South  Level Estimated
Thu 12:02:00 AM 19.4363 -99.0721 180° South  Level Estimated
Thu 12:03:00 AM 19.4363 -99.0721 180° South  Level Estimated
Thu 12:04:00 AM 19.4363 -99.0721 180° South  Level Estimated
Thu 12:05:00 AM 19.4363 -99.0721 180° South  Level Estimated
Thu 12:06:00 AM 19.4363 -99.0721 180° South  Level Estimated
Thu 12:07:00 AM 19.4363 -99.0721 180° South  Level Estimated
Thu 12:08:00 AM 19.4363 -99.0721 180° South  Level Estimated
Thu 12:09:00 AM 19.4363 -99.0721 180° South  Level Estimated

Login

Don't have an account? Register now (free) for customized features, flight alerts, and more!